イカルイト の空港の天気 - METARとTAF

イカルイト空港 ( CYFB / YFB ) - カナダ ヌナブト準州イカルイト
飛行場実況気象(Metar)
観測時間08/11 03:00 EDT (08/11 07:00 UTC)
風向・風速北西 2m/s
視程10km以上
天気現象
全天の4割程度の雲 雲底高度 1710m
気温6℃
湿度81%
気圧996.6hPa
METARCYFB 110700Z 32003KT 15SM SCT056 06/03 A2942 RMK SC4 SLP966
過去の天気等 Google飛行場航空写真 Wunderground天気予報

過去48時間のMETAR

飛行場予報(TAF)
発表時間: 8/11 01:38 EDT (8/11 05:38 UTC)
予報対象時間: 11日2時 EDT ~ 12日2時 EDT
風向・風速北 3m/s
視程10km以上
少しの雲 雲底高度 150m
全天の4割程度の雲 雲底高度 1520m
全天の8割程度の雲 雲底高度 2440m
11日8時 EDT から
風向・風速北北西 6m/s
視程10km以上
少しの雲 雲底高度 1520m
11日13時 EDT から
風向・風速北 9m/s
視程10km以上
なし
TAF CYFB 110538Z 1106/1206 35005KT P6SM FEW005 SCT050 BKN080
FM111200 34012KT P6SM FEW050
FM111700 35017KT P6SM SKC RMK NXT FCST BY 111200Z